Time,TemperatureF,DewpointF,PressureIn,WindDirection,WindDirectionDegrees,WindSpeedMPH,WindSpeedGustMPH,Humidity,HourlyPrecipIn,Conditions,Clouds,dailyrainin,SoftwareType,DateUTC
2013-06-23 00:01:00,70.8,64.0,30.10,SSW,208,2.6,5.8,79,0.00,CLR,,0.00,WeatherDisplay:10.37,2013-06-23 04:01:00,
2013-06-23 00:02:00,70.6,63.8,30.10,SSW,206,0.0,0.0,79,0.00,CLR,,0.00,WeatherDisplay:10.37,2013-06-23 04:02:00,
2013-06-23 00:03:00,70.6,64.1,30.10,SSW,206,0.0,0.0,80,0.00,CLR,,0.00,WeatherDisplay:10.37,2013-06-23 04:03:00,
2013-06-23 00:08:00,70.4,63.9,30.10,SSW,210,0.0,3.5,80,0.00,CLR,,0.00,WeatherDisplay:10.37,2013-06-23 04:08:00,
2013-06-23 00:13:00,70.1,64.0,30.10,SSW,209,0.0,0.0,81,0.00,CLR,,0.00,WeatherDisplay:10.37,2013-06-23 04:13:00,
2013-06-23 00:18:00,70.1,64.0,30.10,SSW,206,0.1,1.2,81,0.00,CLR,,0.00,WeatherDisplay:10.37,2013-06-23 04:18:00,
2013-06-23 00:23:00,69.9,63.8,30.10,SSW,208,0.0,0.0,81,0.00,CLR,,0.00,WeatherDisplay:10.37,2013-06-23 04:23:00,
2013-06-23 00:28:00,69.9,63.8,30.10,SSW,209,0.4,2.3,81,0.00,CLR,,0.00,WeatherDisplay:10.37,2013-06-23 04:28:00,
2013-06-23 00:33:00,69.8,63.7,30.10,SSW,209,0.0,0.0,81,0.00,CLR,,0.00,WeatherDisplay:10.37,2013-06-23 04:33:00,
2013-06-23 00:38:00,69.4,63.7,30.10,SW,215,0.0,0.0,82,0.00,CLR,,0.00,WeatherDisplay:10.37,2013-06-23 04:38:00,
2013-06-23 00:44:00,69.3,63.9,30.10,SW,215,0.0,0.0,83,0.00,CLR,,0.00,WeatherDisplay:10.37,2013-06-23 04:44:00,
2013-06-23 00:49:00,69.1,63.7,30.10,SW,215,0.0,0.0,83,0.00,CLR,,0.00,WeatherDisplay:10.37,2013-06-23 04:49:00,
2013-06-23 00:54:00,68.9,63.9,30.10,SW,215,0.0,0.0,84,0.00,CLR,,0.00,WeatherDisplay:10.37,2013-06-23 04:54:00,
2013-06-23 00:59:00,68.8,63.8,30.10,SW,215,0.0,0.0,84,0.00,CLR,,0.00,WeatherDisplay:10.37,2013-06-23 04:59:00,
2013-06-23 01:04:00,68.6,63.6,30.10,SW,215,0.0,0.0,84,0.00,CLR,,0.00,WeatherDisplay:10.37,2013-06-23 05:04:00,
2013-06-23 01:09:00,68.6,63.6,30.10,SW,215,0.0,0.0,84,0.00,CLR,,0.00,WeatherDisplay:10.37,2013-06-23 05:09:00,
2013-06-23 01:15:00,68.4,63.4,30.11,SW,215,0.0,0.0,84,0.00,CLR,,0.00,WeatherDisplay:10.37,2013-06-23 05:15:00,
2013-06-23 01:20:00,68.4,63.4,30.11,SW,215,0.0,0.0,84,0.00,CLR,,0.00,WeatherDisplay:10.37,2013-06-23 05:20:00,
2013-06-23 01:25:00,68.3,63.3,30.11,SW,215,0.0,0.0,84,0.00,CLR,,0.00,WeatherDisplay:10.37,2013-06-23 05:25:00,
2013-06-23 01:30:00,68.1,63.4,30.11,SW,216,0.0,0.0,85,0.00,CLR,,0.00,WeatherDisplay:10.37,2013-06-23 05:30:00,
2013-06-23 01:35:00,68.1,63.4,30.11,SW,216,0.0,0.0,85,0.00,CLR,,0.00,WeatherDisplay:10.37,2013-06-23 05:35:00,
2013-06-23 01:40:00,68.1,63.1,30.11,SW,215,0.0,0.0,84,0.00,CLR,,0.00,WeatherDisplay:10.37,2013-06-23 05:40:00,
2013-06-23 01:45:00,68.1,63.1,30.11,SW,215,0.0,0.0,84,0.00,CLR,,0.00,WeatherDisplay:10.37,2013-06-23 05:45:00,
2013-06-23 01:50:00,68.1,63.1,30.10,SW,215,0.0,0.0,84,0.00,CLR,,0.00,WeatherDisplay:10.37,2013-06-23 05:50:00,
2013-06-23 01:55:00,67.9,62.9,30.10,SW,215,0.0,0.0,84,0.00,CLR,,0.00,WeatherDisplay:10.37,2013-06-23 05:55:00,
2013-06-23 02:00:00,67.9,62.9,30.10,SW,215,0.0,0.0,84,0.00,CLR,,0.00,WeatherDisplay:10.37,2013-06-23 06:00:00,
2013-06-23 02:03:00,67.9,62.9,30.10,SW,215,0.0,0.0,84,0.00,CLR,,0.00,WeatherDisplay:10.37,2013-06-23 06:03:00,
2013-06-23 02:08:00,67.8,62.8,30.10,SW,215,0.0,0.0,84,0.00,CLR,,0.00,WeatherDisplay:10.37,2013-06-23 06:08:00,
2013-06-23 02:13:00,67.6,62.9,30.10,SW,215,0.0,0.0,85,0.00,CLR,,0.00,WeatherDisplay:10.37,2013-06-23 06:13:00,
2013-06-23 02:18:00,67.4,62.7,30.10,SW,215,0.0,0.0,85,0.00,CLR,,0.00,WeatherDisplay:10.37,2013-06-23 06:18:00,
2013-06-23 02:23:00,67.3,62.6,30.10,SW,215,0.0,0.0,85,0.00,CLR,,0.00,WeatherDisplay:10.37,2013-06-23 06:23:00,
2013-06-23 02:29:00,67.3,62.6,30.10,SW,215,0.0,0.0,85,0.00,CLR,,0.00,WeatherDisplay:10.37,2013-06-23 06:29:00,
2013-06-23 02:34:00,67.1,62.8,30.10,SW,215,0.0,0.0,86,0.00,CLR,,0.00,WeatherDisplay:10.37,2013-06-23 06:34:00,
2013-06-23 02:39:00,66.8,62.5,30.10,SW,215,0.0,0.0,86,0.00,CLR,,0.00,WeatherDisplay:10.37,2013-06-23 06:39:00,
2013-06-23 02:44:00,66.6,62.3,30.10,SW,215,0.0,0.0,86,0.00,CLR,,0.00,WeatherDisplay:10.37,2013-06-23 06:44:00,
2013-06-23 02:50:00,66.4,62.1,30.09,SW,215,0.0,0.0,86,0.00,CLR,,0.00,WeatherDisplay:10.37,2013-06-23 06:50:00,
2013-06-23 02:55:00,66.3,62.3,30.09,SW,215,0.0,0.0,87,0.00,CLR,,0.00,WeatherDisplay:10.37,2013-06-23 06:55:00,
2013-06-23 03:00:00,66.3,62.3,30.09,SW,215,0.0,0.0,87,0.00,CLR,,0.00,WeatherDisplay:10.37,2013-06-23 07:00:00,
2013-06-23 03:05:00,66.3,62.0,30.09,SW,216,0.0,0.0,86,0.00,CLR,,0.00,WeatherDisplay:10.37,2013-06-23 07:05:00,
2013-06-23 03:10:00,66.3,62.0,30.09,SW,216,1.1,4.6,86,0.00,CLR,,0.00,WeatherDisplay:10.37,2013-06-23 07:10:00,
2013-06-23 03:15:00,66.3,62.0,30.08,SW,219,0.0,0.0,86,0.00,CLR,,0.00,WeatherDisplay:10.37,2013-06-23 07:15:00,
2013-06-23 03:20:00,66.3,62.0,30.08,WSW,240,0.8,2.3,86,0.00,CLR,,0.00,WeatherDisplay:10.37,2013-06-23 07:20:00,
2013-06-23 03:26:00,66.3,62.0,30.08,WSW,240,0.0,0.0,86,0.00,CLR,,0.00,WeatherDisplay:10.37,2013-06-23 07:26:00,
2013-06-23 03:31:00,66.1,61.8,30.08,WSW,240,0.0,0.0,86,0.00,CLR,,0.00,WeatherDisplay:10.37,2013-06-23 07:31:00,
2013-06-23 03:36:00,66.0,61.7,30.08,WSW,240,0.0,0.0,86,0.00,CLR,,0.00,WeatherDisplay:10.37,2013-06-23 07:36:00,
2013-06-23 03:41:00,65.8,61.8,30.08,WSW,240,0.0,0.0,87,0.00,CLR,,0.00,WeatherDisplay:10.37,2013-06-23 07:41:00,
2013-06-23 03:47:00,65.6,61.6,30.08,WSW,240,0.0,0.0,87,0.00,CLR,,0.00,WeatherDisplay:10.37,2013-06-23 07:47:00,
2013-06-23 03:52:00,65.5,61.9,30.08,WSW,240,0.0,0.0,88,0.00,CLR,,0.00,WeatherDisplay:10.37,2013-06-23 07:52:00,
2013-06-23 03:57:00,65.5,61.9,30.09,WSW,239,0.0,0.0,88,0.00,CLR,,0.00,WeatherDisplay:10.37,2013-06-23 07:57:00,
2013-06-23 04:02:00,65.5,61.9,30.09,WSW,239,0.0,0.0,88,0.00,CLR,,0.00,WeatherDisplay:10.37,2013-06-23 08:02:00,
2013-06-23 04:07:00,65.5,61.9,30.09,WSW,239,0.0,0.0,88,0.00,CLR,,0.00,WeatherDisplay:10.37,2013-06-23 08:07:00,
2013-06-23 04:13:00,65.3,61.7,30.09,WSW,240,0.0,0.0,88,0.00,CLR,,0.00,WeatherDisplay:10.37,2013-06-23 08:13:00,
2013-06-23 04:18:00,65.3,61.7,30.09,WSW,240,0.0,0.0,88,0.00,CLR,,0.00,WeatherDisplay:10.37,2013-06-23 08:18:00,
2013-06-23 04:23:00,65.3,61.7,30.09,WSW,239,0.0,0.0,88,0.00,CLR,,0.00,WeatherDisplay:10.37,2013-06-23 08:23:00,
2013-06-23 04:28:00,65.3,61.7,30.08,WSW,239,0.0,0.0,88,0.00,CLR,,0.00,WeatherDisplay:10.37,2013-06-23 08:28:00,
2013-06-23 04:33:00,65.2,61.6,30.08,WSW,239,0.0,0.0,88,0.00,CLR,,0.00,WeatherDisplay:10.37,2013-06-23 08:33:00,
2013-06-23 04:38:00,65.2,61.9,30.08,WSW,239,0.0,0.0,89,0.00,CLR,,0.00,WeatherDisplay:10.37,2013-06-23 08:38:00,
2013-06-23 04:43:00,65.3,62.0,30.08,SW,236,0.0,0.0,89,0.00,CLR,,0.00,WeatherDisplay:10.37,2013-06-23 08:43:00,
2013-06-23 04:48:00,65.2,61.9,30.08,SW,236,0.0,0.0,89,0.00,CLR,,0.00,WeatherDisplay:10.37,2013-06-23 08:48:00,
2013-06-23 04:54:00,65.2,61.9,30.09,SW,236,0.0,0.0,89,0.00,CLR,,0.00,WeatherDisplay:10.37,2013-06-23 08:54:00,
2013-06-23 04:59:00,65.0,61.7,30.09,SW,236,0.0,0.0,89,0.00,CLR,,0.00,WeatherDisplay:10.37,2013-06-23 08:59:00,
2013-06-23 05:04:00,64.8,61.5,30.09,SW,236,0.0,0.0,89,0.00,CLR,,0.00,WeatherDisplay:10.37,2013-06-23 09:04:00,
2013-06-23 05:09:00,64.8,61.5,30.09,SW,236,0.0,0.0,89,0.00,CLR,,0.00,WeatherDisplay:10.37,2013-06-23 09:09:00,
2013-06-23 05:14:00,64.7,61.4,30.09,SW,236,0.0,0.0,89,0.00,CLR,,0.00,WeatherDisplay:10.37,2013-06-23 09:14:00,
2013-06-23 05:19:00,64.5,61.5,30.09,SW,236,0.0,0.0,90,0.00,CLR,,0.00,WeatherDisplay:10.37,2013-06-23 09:19:00,
2013-06-23 05:24:00,64.5,61.5,30.09,SW,236,0.0,0.0,90,0.00,CLR,,0.00,WeatherDisplay:10.37,2013-06-23 09:24:00,
2013-06-23 05:29:00,64.5,61.5,30.09,SW,236,0.0,0.0,90,0.00,CLR,,0.00,WeatherDisplay:10.37,2013-06-23 09:29:00,
2013-06-23 05:34:00,64.3,61.3,30.09,SW,236,0.0,0.0,90,0.00,CLR,,0.00,WeatherDisplay:10.37,2013-06-23 09:34:00,
2013-06-23 05:39:00,64.2,61.2,30.09,SW,236,0.0,0.0,90,0.00,CLR,,0.00,WeatherDisplay:10.37,2013-06-23 09:39:00,
2013-06-23 05:45:00,64.0,61.3,30.09,SW,236,0.0,0.0,91,0.00,CLR,,0.00,WeatherDisplay:10.37,2013-06-23 09:45:00,
2013-06-23 05:50:00,64.0,61.3,30.09,SW,236,0.0,0.0,91,0.00,CLR,,0.00,WeatherDisplay:10.37,2013-06-23 09:50:00,
2013-06-23 05:55:00,63.9,61.5,30.09,SW,236,0.0,0.0,92,0.00,CLR,,0.00,WeatherDisplay:10.37,2013-06-23 09:55:00,
2013-06-23 06:00:00,63.9,61.2,30.10,SW,236,0.0,0.0,91,0.00,CLR,,0.00,WeatherDisplay:10.37,2013-06-23 10:00:00,
2013-06-23 06:05:00,64.0,61.6,30.10,SW,236,0.0,0.0,92,0.00,CLR,,0.00,WeatherDisplay:10.37,2013-06-23 10:05:00,
2013-06-23 06:10:00,63.9,61.5,30.10,SW,236,0.0,0.0,92,0.00,CLR,,0.00,WeatherDisplay:10.37,2013-06-23 10:10:00,
2013-06-23 06:15:00,64.0,61.6,30.10,SW,236,0.0,0.0,92,0.00,CLR,,0.00,WeatherDisplay:10.37,2013-06-23 10:15:00,
2013-06-23 06:20:00,64.2,61.8,30.10,SW,236,0.0,0.0,92,0.00,CLR,,0.00,WeatherDisplay:10.37,2013-06-23 10:20:00,
2013-06-23 06:25:00,64.3,61.9,30.10,SW,236,0.0,0.0,92,0.00,CLR,,0.00,WeatherDisplay:10.37,2013-06-23 10:25:00,
2013-06-23 06:31:00,64.7,62.3,30.10,SW,236,0.0,0.0,92,0.00,CLR,,0.00,WeatherDisplay:10.37,2013-06-23 10:31:00,
2013-06-23 06:36:00,64.8,62.4,30.10,SW,236,0.0,0.0,92,0.00,CLR,,0.00,WeatherDisplay:10.37,2013-06-23 10:36:00,
2013-06-23 06:41:00,64.8,62.4,30.10,SW,236,0.0,0.0,92,0.00,CLR,,0.00,WeatherDisplay:10.37,2013-06-23 10:41:00,
2013-06-23 06:46:00,64.8,62.4,30.10,SW,236,0.0,0.0,92,0.00,CLR,,0.00,WeatherDisplay:10.37,2013-06-23 10:46:00,
2013-06-23 06:51:00,65.0,62.6,30.10,SW,236,0.0,0.0,92,0.00,CLR,,0.00,WeatherDisplay:10.37,2013-06-23 10:51:00,
2013-06-23 06:56:00,65.3,62.9,30.11,SW,236,0.0,0.0,92,0.00,CLR,,0.00,WeatherDisplay:10.37,2013-06-23 10:56:00,
2013-06-23 07:01:00,65.6,63.2,30.11,SW,236,0.0,0.0,92,0.00,CLR,,0.00,WeatherDisplay:10.37,2013-06-23 11:01:00,
2013-06-23 07:06:00,66.0,63.3,30.11,SW,236,0.0,0.0,91,0.00,CLR,,0.00,WeatherDisplay:10.37,2013-06-23 11:06:00,
2013-06-23 07:11:00,66.6,64.2,30.11,SW,236,0.0,0.0,92,0.00,CLR,,0.00,WeatherDisplay:10.37,2013-06-23 11:11:00,
2013-06-23 07:16:00,66.9,64.2,30.11,SW,236,0.0,0.0,91,0.00,CLR,,0.00,WeatherDisplay:10.37,2013-06-23 11:16:00,
2013-06-23 07:21:00,66.9,64.2,30.11,SW,234,0.0,1.2,91,0.00,CLR,,0.00,WeatherDisplay:10.37,2013-06-23 11:21:00,
2013-06-23 07:26:00,67.1,64.1,30.11,SW,234,0.0,0.0,90,0.00,CLR,,0.00,WeatherDisplay:10.37,2013-06-23 11:26:00,
2013-06-23 07:31:00,67.3,64.3,30.12,SW,234,0.0,0.0,90,0.00,CLR,,0.00,WeatherDisplay:10.37,2013-06-23 11:31:00,
2013-06-23 07:36:00,67.6,64.2,30.12,SW,217,0.0,0.0,89,0.00,CLR,,0.00,WeatherDisplay:10.37,2013-06-23 11:36:00,
2013-06-23 07:41:00,67.9,64.5,30.12,SW,219,1.3,2.0,89,0.00,CLR,,0.00,WeatherDisplay:10.37,2013-06-23 11:41:00,
2013-06-23 07:47:00,68.3,64.6,30.12,SW,219,0.0,0.0,88,0.00,CLR,,0.00,WeatherDisplay:10.37,2013-06-23 11:47:00,
2013-06-23 07:52:00,68.6,64.6,30.12,SW,224,0.1,1.2,87,0.00,CLR,,0.00,WeatherDisplay:10.37,2013-06-23 11:52:00,
2013-06-23 07:57:00,69.1,64.7,30.12,SSW,199,0.6,2.3,86,0.00,CLR,,0.00,WeatherDisplay:10.37,2013-06-23 11:57:00,
2013-06-23 08:02:00,69.3,64.6,30.12,SSW,196,1.2,3.5,85,0.00,CLR,,0.00,WeatherDisplay:10.37,2013-06-23 12:02:00,
2013-06-23 08:07:00,69.6,64.9,30.12,SSW,202,3.0,5.8,85,0.00,CLR,,0.00,WeatherDisplay:10.37,2013-06-23 12:07:00,
2013-06-23 08:12:00,69.9,65.2,30.12,South,186,0.0,0.0,85,0.00,CLR,,0.00,WeatherDisplay:10.37,2013-06-23 12:12:00,
2013-06-23 08:17:00,70.3,65.2,30.12,South,185,2.8,4.6,84,0.00,CLR,,0.00,WeatherDisplay:10.37,2013-06-23 12:17:00,
2013-06-23 08:22:00,70.4,65.3,30.11,South,174,0.0,0.0,84,0.00,CLR,,0.00,WeatherDisplay:10.37,2013-06-23 12:22:00,
2013-06-23 08:27:00,70.9,65.5,30.11,SSW,198,0.0,3.5,83,0.00,CLR,,0.00,WeatherDisplay:10.37,2013-06-23 12:27:00,
2013-06-23 08:33:00,71.1,65.7,30.12,SSW,196,1.2,3.5,83,0.00,CLR,,0.00,WeatherDisplay:10.37,2013-06-23 12:33:00,
2013-06-23 08:38:00,71.6,65.8,30.12,SSW,205,0.7,3.5,82,0.00,CLR,,0.00,WeatherDisplay:10.37,2013-06-23 12:38:00,
2013-06-23 08:43:00,72.1,65.9,30.12,SSW,200,0.0,0.0,81,0.00,CLR,,0.00,WeatherDisplay:10.37,2013-06-23 12:43:00,
2013-06-23 08:48:00,72.3,66.1,30.12,SW,226,2.6,5.0,81,0.00,CLR,,0.00,WeatherDisplay:10.37,2013-06-23 12:48:00,
2013-06-23 08:53:00,72.5,66.0,30.11,SW,215,0.7,4.0,80,0.00,CLR,,0.00,WeatherDisplay:10.37,2013-06-23 12:53:00,
2013-06-23 08:58:00,72.8,66.3,30.11,South,175,3.9,5.8,80,0.00,CLR,,0.00,WeatherDisplay:10.37,2013-06-23 12:58:00,
2013-06-23 09:03:00,73.0,66.1,30.11,South,188,0.0,3.5,79,0.00,CLR,,0.00,WeatherDisplay:10.37,2013-06-23 13:03:00,
2013-06-23 09:08:00,73.3,66.4,30.11,South,184,0.8,4.6,79,0.00,CLR,,0.00,WeatherDisplay:10.37,2013-06-23 13:08:00,
2013-06-23 09:13:00,73.9,67.0,30.11,South,191,1.4,1.4,79,0.00,CLR,,0.00,WeatherDisplay:10.37,2013-06-23 13:13:00,
2013-06-23 09:18:00,74.2,66.9,30.11,SW,224,0.0,1.2,78,0.00,CLR,,0.00,WeatherDisplay:10.37,2013-06-23 13:18:00,
2013-06-23 09:24:00,74.6,67.3,30.11,South,188,0.6,2.3,78,0.00,CLR,,0.00,WeatherDisplay:10.37,2013-06-23 13:24:00,
2013-06-23 09:29:00,74.7,67.0,30.11,SSW,203,3.0,5.8,77,0.00,CLR,,0.00,WeatherDisplay:10.37,2013-06-23 13:29:00,
2013-06-23 09:34:00,74.9,66.8,30.10,South,191,2.0,6.9,76,0.00,CLR,,0.00,WeatherDisplay:10.37,2013-06-23 13:34:00,
2013-06-23 09:39:00,75.3,67.2,30.10,SSE,157,2.3,4.0,76,0.00,CLR,,0.00,WeatherDisplay:10.37,2013-06-23 13:39:00,
2013-06-23 09:45:00,76.0,67.9,30.10,SSE,165,0.2,0.0,76,0.00,CLR,,0.00,WeatherDisplay:10.37,2013-06-23 13:45:00,
2013-06-23 09:50:00,76.1,67.6,30.10,SSE,154,2.6,6.0,75,0.00,CLR,,0.00,WeatherDisplay:10.37,2013-06-23 13:50:00,
2013-06-23 09:55:00,76.3,67.8,30.10,SSE,148,0.0,3.5,75,0.00,CLR,,0.00,WeatherDisplay:10.37,2013-06-23 13:55:00,
2013-06-23 10:00:00,77.2,69.0,30.10,South,189,1.9,6.0,76,0.00,CLR,,0.00,WeatherDisplay:10.37,2013-06-23 14:00:00,
2013-06-23 10:05:00,77.0,68.1,30.10,SSW,192,0.0,0.0,74,0.00,CLR,,0.00,WeatherDisplay:10.37,2013-06-23 14:05:00,
2013-06-23 10:10:00,77.0,68.1,30.09,SSE,147,4.0,5.8,74,0.00,CLR,,0.00,WeatherDisplay:10.37,2013-06-23 14:10:00,
2013-06-23 10:16:00,76.7,67.0,30.09,SSW,198,6.1,8.1,72,0.00,CLR,,0.00,WeatherDisplay:10.37,2013-06-23 14:16:00,
2013-06-23 10:21:00,76.8,67.1,30.09,South,182,4.0,8.1,72,0.00,CLR,,0.00,WeatherDisplay:10.37,2013-06-23 14:21:00,
2013-06-23 10:26:00,77.2,67.5,30.10,South,174,5.5,11.5,72,0.00,CLR,,0.00,WeatherDisplay:10.37,2013-06-23 14:26:00,
2013-06-23 10:31:00,77.2,67.1,30.09,SW,215,5.0,6.9,71,0.00,CLR,,0.00,WeatherDisplay:10.37,2013-06-23 14:31:00,
2013-06-23 10:36:00,77.6,67.4,30.09,SW,230,3.7,7.0,71,0.00,CLR,,0.00,WeatherDisplay:10.37,2013-06-23 14:36:00,
2013-06-23 10:42:00,77.6,66.6,30.09,South,191,6.7,9.2,69,0.00,CLR,,0.00,WeatherDisplay:10.37,2013-06-23 14:42:00,
2013-06-23 10:47:00,78.1,67.5,30.09,South,182,4.4,10.4,70,0.00,CLR,,0.00,WeatherDisplay:10.37,2013-06-23 14:47:00,
2013-06-23 10:52:00,78.3,66.4,30.09,SW,226,6.3,11.5,67,0.00,CLR,,0.00,WeatherDisplay:10.37,2013-06-23 14:52:00,
2013-06-23 10:57:00,78.5,66.6,30.09,SW,230,4.6,10.0,67,0.00,CLR,,0.00,WeatherDisplay:10.37,2013-06-23 14:57:00,
2013-06-23 11:02:00,78.8,67.3,30.09,South,189,1.3,5.8,68,0.00,CLR,,0.00,WeatherDisplay:10.37,2013-06-23 15:02:00,
2013-06-23 11:07:00,79.0,66.2,30.09,SSW,206,7.2,11.5,65,0.00,CLR,,0.00,WeatherDisplay:10.37,2013-06-23 15:07:00,
2013-06-23 11:12:00,79.0,66.2,30.09,SSW,198,6.3,10.4,65,0.00,CLR,,0.00,WeatherDisplay:10.37,2013-06-23 15:12:00,
2013-06-23 11:17:00,79.0,65.8,30.09,WSW,256,7.0,11.5,64,0.00,CLR,,0.00,WeatherDisplay:10.37,2013-06-23 15:17:00,
2013-06-23 11:22:00,79.6,66.8,30.08,SSE,161,6.6,9.2,65,0.00,CLR,,0.00,WeatherDisplay:10.37,2013-06-23 15:22:00,
2013-06-23 11:28:00,79.6,66.8,30.08,SSW,209,7.4,11.5,65,0.00,CLR,,0.00,WeatherDisplay:10.37,2013-06-23 15:28:00,
2013-06-23 11:33:00,79.8,67.0,30.08,SW,223,2.8,6.0,65,0.00,CLR,,0.00,WeatherDisplay:10.37,2013-06-23 15:33:00,
2013-06-23 11:39:00,80.1,67.3,30.08,SSW,205,3.7,5.0,65,0.00,CLR,,0.00,WeatherDisplay:10.37,2013-06-23 15:39:00,
2013-06-23 11:44:00,80.5,67.2,30.08,WSW,243,3.5,9.2,64,0.00,CLR,,0.00,WeatherDisplay:10.37,2013-06-23 15:44:00,
2013-06-23 11:49:00,80.7,67.8,30.08,SW,219,1.8,6.9,65,0.00,CLR,,0.00,WeatherDisplay:10.37,2013-06-23 15:49:00,
2013-06-23 11:54:00,81.1,66.8,30.08,WSW,237,4.4,12.0,62,0.00,CLR,,0.00,WeatherDisplay:10.37,2013-06-23 15:54:00,
2013-06-23 11:59:00,80.7,66.9,30.08,SSW,206,2.1,10.4,63,0.00,CLR,,0.00,WeatherDisplay:10.37,2013-06-23 15:59:00,
2013-06-23 12:05:00,80.9,67.6,30.08,WNW,294,2.2,6.9,64,0.00,CLR,,0.00,WeatherDisplay:10.37,2013-06-23 16:05:00,
2013-06-23 12:10:00,81.4,68.1,30.08,SSW,202,6.5,10.4,64,0.00,CLR,,0.00,WeatherDisplay:10.37,2013-06-23 16:10:00,
2013-06-23 12:15:00,81.4,68.5,30.08,South,176,0.3,5.8,65,0.00,CLR,,0.00,WeatherDisplay:10.37,2013-06-23 16:15:00,
2013-06-23 12:20:00,82.2,67.4,30.07,South,176,0.0,0.0,61,0.00,CLR,,0.00,WeatherDisplay:10.37,2013-06-23 16:20:00,
2013-06-23 12:25:00,81.8,68.0,30.07,SSW,198,0.6,10.4,63,0.00,CLR,,0.00,WeatherDisplay:10.37,2013-06-23 16:25:00,
2013-06-23 12:30:00,82.0,67.2,30.07,SW,232,4.3,5.8,61,0.00,CLR,,0.00,WeatherDisplay:10.37,2013-06-23 16:30:00,
2013-06-23 12:36:00,81.8,67.5,30.07,SSW,213,1.7,8.1,62,0.00,CLR,,0.00,WeatherDisplay:10.37,2013-06-23 16:36:00,
2013-06-23 12:41:00,82.4,68.5,30.07,SSE,150,1.7,4.6,63,0.00,CLR,,0.00,WeatherDisplay:10.37,2013-06-23 16:41:00,
2013-06-23 12:46:00,82.0,68.2,30.06,South,176,0.1,4.6,63,0.00,CLR,,0.00,WeatherDisplay:10.37,2013-06-23 16:46:00,
2013-06-23 12:51:00,81.6,68.2,30.07,South,189,3.8,6.9,64,0.00,CLR,,0.00,WeatherDisplay:10.37,2013-06-23 16:51:00,
2013-06-23 12:56:00,82.0,68.6,30.06,SSW,200,4.8,10.4,64,0.00,CLR,,0.00,WeatherDisplay:10.37,2013-06-23 16:56:00,
2013-06-23 12:57:00,82.0,68.2,30.06,SW,232,3.9,10.4,63,0.00,CLR,,0.00,WeatherDisplay:10.37,2013-06-23 16:57:00,
2013-06-23 12:58:00,82.0,68.2,30.06,SW,222,0.0,6.9,63,0.00,CLR,,0.00,WeatherDisplay:10.37,2013-06-23 16:58:00,
2013-06-23 13:03:00,82.4,68.1,30.06,SSW,208,1.5,11.5,62,0.00,CLR,,0.00,WeatherDisplay:10.37,2013-06-23 17:03:00,
2013-06-23 13:08:00,83.0,67.2,30.06,South,176,6.3,11.5,59,0.00,CLR,,0.00,WeatherDisplay:10.37,2013-06-23 17:08:00,
2013-06-23 13:13:00,83.0,69.1,30.06,South,175,0.8,6.0,63,0.00,CLR,,0.00,WeatherDisplay:10.37,2013-06-23 17:13:00,
2013-06-23 13:18:00,83.2,67.9,30.06,SW,224,3.8,12.7,60,0.00,CLR,,0.00,WeatherDisplay:10.37,2013-06-23 17:18:00,
2013-06-23 13:23:00,83.2,68.3,30.06,South,176,3.3,11.5,61,0.00,CLR,,0.00,WeatherDisplay:10.37,2013-06-23 17:23:00,
2013-06-23 13:28:00,83.2,68.3,30.05,SSW,198,0.1,3.0,61,0.00,CLR,,0.00,WeatherDisplay:10.37,2013-06-23 17:28:00,
2013-06-23 13:33:00,83.2,68.3,30.05,SSE,168,4.6,8.1,61,0.00,CLR,,0.00,WeatherDisplay:10.37,2013-06-23 17:33:00,
2013-06-23 13:38:00,83.2,69.8,30.05,South,172,1.7,8.1,64,0.00,CLR,,0.00,WeatherDisplay:10.37,2013-06-23 17:38:00,
2013-06-23 13:44:00,83.0,67.7,30.05,SSW,193,3.9,8.1,60,0.00,CLR,,0.00,WeatherDisplay:10.37,2013-06-23 17:44:00,
2013-06-23 13:49:00,83.2,68.3,30.05,South,182,3.3,11.5,61,0.00,CLR,,0.00,WeatherDisplay:10.37,2013-06-23 17:49:00,
2013-06-23 13:54:00,83.2,67.4,30.05,SSW,195,8.3,14.0,59,0.00,CLR,,0.00,WeatherDisplay:10.37,2013-06-23 17:54:00,
2013-06-23 13:59:00,83.4,67.1,30.04,SSW,205,4.0,6.9,58,0.00,CLR,,0.00,WeatherDisplay:10.37,2013-06-23 17:59:00,
2013-06-23 14:04:00,84.0,69.1,30.04,South,186,2.6,7.0,61,0.00,CLR,,0.00,WeatherDisplay:10.37,2013-06-23 18:04:00,
2013-06-23 14:09:00,83.8,67.4,30.04,South,171,7.2,11.5,58,0.00,CLR,,0.00,WeatherDisplay:10.37,2013-06-23 18:09:00,
2013-06-23 14:15:00,84.1,68.7,30.04,South,189,4.3,6.9,60,0.00,CLR,,0.00,WeatherDisplay:10.37,2013-06-23 18:15:00,
2013-06-23 14:20:00,84.1,67.7,30.04,SW,227,3.4,10.4,58,0.00,CLR,,0.00,WeatherDisplay:10.37,2013-06-23 18:20:00,
2013-06-23 14:25:00,83.6,66.8,30.04,South,172,6.7,11.5,57,0.00,CLR,,0.00,WeatherDisplay:10.37,2013-06-23 18:25:00,
2013-06-23 14:31:00,82.8,67.5,30.03,South,184,4.0,5.8,60,0.00,CLR,,0.00,WeatherDisplay:10.37,2013-06-23 18:31:00,
2013-06-23 14:36:00,82.8,67.0,30.03,SW,223,7.6,13.8,59,0.00,CLR,,0.00,WeatherDisplay:10.37,2013-06-23 18:36:00,
2013-06-23 14:41:00,82.8,68.4,30.03,South,184,1.2,6.0,62,0.00,CLR,,0.00,WeatherDisplay:10.37,2013-06-23 18:41:00,
2013-06-23 14:46:00,83.4,69.0,30.03,SE,145,0.5,5.8,62,0.00,CLR,,0.00,WeatherDisplay:10.37,2013-06-23 18:46:00,
2013-06-23 14:51:00,83.4,69.0,30.03,SSW,192,3.2,13.0,62,0.00,CLR,,0.00,WeatherDisplay:10.37,2013-06-23 18:51:00,
2013-06-23 14:56:00,83.6,68.7,30.02,South,179,4.4,8.1,61,0.00,CLR,,0.00,WeatherDisplay:10.37,2013-06-23 18:56:00,
2013-06-23 15:02:00,83.4,68.1,30.02,SW,232,4.3,7.0,60,0.00,CLR,,0.00,WeatherDisplay:10.37,2013-06-23 19:02:00,
2013-06-23 15:07:00,83.2,68.3,30.02,SSW,192,1.7,6.9,61,0.00,CLR,,0.00,WeatherDisplay:10.37,2013-06-23 19:07:00,
2013-06-23 15:12:00,82.8,68.4,30.02,South,181,0.1,2.3,62,0.00,CLR,,0.00,WeatherDisplay:10.37,2013-06-23 19:12:00,
2013-06-23 15:17:00,82.2,67.9,30.02,SSE,157,6.6,7.0,62,0.00,CLR,,0.00,WeatherDisplay:10.37,2013-06-23 19:17:00,
2013-06-23 15:22:00,82.0,68.2,30.02,SW,219,0.0,1.2,63,0.00,CLR,,0.00,WeatherDisplay:10.37,2013-06-23 19:22:00,
2013-06-23 15:27:00,82.6,68.7,30.01,South,186,0.0,0.0,63,0.00,CLR,,0.00,WeatherDisplay:10.37,2013-06-23 19:27:00,
2013-06-23 15:32:00,82.6,68.7,30.01,SSW,196,0.3,4.6,63,0.00,CLR,,0.00,WeatherDisplay:10.37,2013-06-23 19:32:00,
2013-06-23 15:37:00,83.4,69.0,30.01,South,175,0.0,0.0,62,0.00,CLR,,0.00,WeatherDisplay:10.37,2013-06-23 19:37:00,
2013-06-23 15:43:00,83.2,68.8,30.00,SSW,199,1.6,5.8,62,0.00,CLR,,0.00,WeatherDisplay:10.37,2013-06-23 19:43:00,
2013-06-23 15:48:00,83.0,69.1,30.00,South,188,0.0,2.3,63,0.00,CLR,,0.00,WeatherDisplay:10.37,2013-06-23 19:48:00,
2013-06-23 15:53:00,82.4,68.1,30.01,SSE,168,3.5,6.9,62,0.00,CLR,,0.00,WeatherDisplay:10.37,2013-06-23 19:53:00,
2013-06-23 15:58:00,82.6,67.3,30.01,South,169,5.3,8.1,60,0.00,CLR,,0.00,WeatherDisplay:10.37,2013-06-23 19:58:00,
2013-06-23 16:04:00,82.8,68.0,30.00,South,185,1.2,1.2,61,0.00,CLR,,0.00,WeatherDisplay:10.37,2013-06-23 20:04:00,
2013-06-23 16:09:00,82.8,67.5,30.00,South,175,1.6,6.9,60,0.00,CLR,,0.00,WeatherDisplay:10.37,2013-06-23 20:09:00,
2013-06-23 16:14:00,82.4,68.1,30.00,South,188,5.5,9.2,62,0.00,CLR,,0.00,WeatherDisplay:10.37,2013-06-23 20:14:00,
2013-06-23 16:19:00,81.8,68.0,30.00,SSE,160,2.4,6.9,63,0.00,CLR,,0.00,WeatherDisplay:10.37,2013-06-23 20:19:00,
2013-06-23 16:24:00,81.6,68.2,30.00,South,171,6.1,8.1,64,0.00,CLR,,0.00,WeatherDisplay:10.37,2013-06-23 20:24:00,
2013-06-23 16:29:00,81.4,68.1,30.01,SSE,151,5.4,10.4,64,0.00,CLR,,0.00,WeatherDisplay:10.37,2013-06-23 20:29:00,
2013-06-23 16:34:00,81.4,68.5,30.00,South,178,3.0,6.9,65,0.00,CLR,,0.00,WeatherDisplay:10.37,2013-06-23 20:34:00,
2013-06-23 16:40:00,81.6,68.2,30.00,SSW,203,5.1,6.0,64,0.00,CLR,,0.00,WeatherDisplay:10.37,2013-06-23 20:40:00,
2013-06-23 16:45:00,82.0,69.1,30.00,SSE,151,2.7,5.8,65,0.00,CLR,,0.00,WeatherDisplay:10.37,2013-06-23 20:45:00,
2013-06-23 16:50:00,82.2,69.3,30.00,South,191,2.6,5.8,65,0.00,CLR,,0.00,WeatherDisplay:10.37,2013-06-23 20:50:00,
2013-06-23 16:55:00,82.2,68.3,29.99,South,172,0.0,1.2,63,0.00,CLR,,0.00,WeatherDisplay:10.37,2013-06-23 20:55:00,
2013-06-23 17:00:00,82.4,69.4,29.99,South,181,0.0,0.0,65,0.00,CLR,,0.00,WeatherDisplay:10.37,2013-06-23 21:00:00,
2013-06-23 17:05:00,83.0,69.6,29.99,South,179,0.0,0.0,64,0.00,CLR,,0.00,WeatherDisplay:10.37,2013-06-23 21:05:00,
2013-06-23 17:11:00,82.6,68.3,29.99,South,188,6.2,8.1,62,0.00,CLR,,0.00,WeatherDisplay:10.37,2013-06-23 21:11:00,
2013-06-23 17:16:00,82.4,69.0,29.99,SSE,161,0.0,0.0,64,0.00,CLR,,0.00,WeatherDisplay:10.37,2013-06-23 21:16:00,
2013-06-23 17:21:00,81.8,68.0,29.99,South,184,4.5,8.1,63,0.00,CLR,,0.00,WeatherDisplay:10.37,2013-06-23 21:21:00,
2013-06-23 17:26:00,81.4,68.5,29.99,SE,141,5.4,6.0,65,0.00,CLR,,0.00,WeatherDisplay:10.37,2013-06-23 21:26:00,
2013-06-23 17:31:00,81.2,68.3,29.99,SSW,192,4.1,11.5,65,0.00,CLR,,0.00,WeatherDisplay:10.37,2013-06-23 21:31:00,
2013-06-23 17:37:00,81.2,68.3,29.99,South,174,2.8,4.6,65,0.00,CLR,,0.00,WeatherDisplay:10.37,2013-06-23 21:37:00,
2013-06-23 17:42:00,81.2,69.2,29.99,SSE,162,0.3,4.0,67,0.00,CLR,,0.00,WeatherDisplay:10.37,2013-06-23 21:42:00,
2013-06-23 17:47:00,81.1,68.2,29.99,South,191,2.7,6.9,65,0.00,CLR,,0.00,WeatherDisplay:10.37,2013-06-23 21:47:00,
2013-06-23 17:52:00,81.1,68.7,29.99,SSW,193,0.0,1.0,66,0.00,CLR,,0.00,WeatherDisplay:10.37,2013-06-23 21:52:00,
2013-06-23 17:58:00,81.1,68.7,29.99,South,186,4.9,9.2,66,0.00,CLR,,0.00,WeatherDisplay:10.37,2013-06-23 21:58:00,
2013-06-23 18:03:00,81.1,68.7,29.99,SSW,195,6.0,10.4,66,0.00,CLR,,0.00,WeatherDisplay:10.37,2013-06-23 22:03:00,
2013-06-23 18:08:00,81.1,69.1,29.99,SSE,165,4.0,5.8,67,0.00,CLR,,0.00,WeatherDisplay:10.37,2013-06-23 22:08:00,
2013-06-23 18:13:00,81.1,70.0,29.98,SSW,193,0.0,0.0,69,0.00,CLR,,0.00,WeatherDisplay:10.37,2013-06-23 22:13:00,
2013-06-23 18:18:00,80.5,69.0,29.98,South,171,5.0,11.5,68,0.00,CLR,,0.00,WeatherDisplay:10.37,2013-06-23 22:18:00,
2013-06-23 18:23:00,80.1,69.0,29.98,WSW,240,2.0,11.0,69,0.00,CLR,,0.00,WeatherDisplay:10.37,2013-06-23 22:23:00,
2013-06-23 18:29:00,79.8,69.1,29.99,SSE,148,2.0,4.0,70,0.00,CLR,,0.00,WeatherDisplay:10.37,2013-06-23 22:29:00,
2013-06-23 18:34:00,79.6,69.0,29.98,South,176,4.1,6.9,70,0.00,CLR,,0.00,WeatherDisplay:10.37,2013-06-23 22:34:00,
2013-06-23 18:39:00,79.2,69.0,29.98,South,184,4.3,11.5,71,0.00,CLR,,0.00,WeatherDisplay:10.37,2013-06-23 22:39:00,
2013-06-23 18:44:00,79.2,69.0,29.99,South,188,3.5,3.5,71,0.00,CLR,,0.00,WeatherDisplay:10.37,2013-06-23 22:44:00,
2013-06-23 18:50:00,79.2,69.4,29.98,SSE,160,0.0,0.0,72,0.00,CLR,,0.00,WeatherDisplay:10.37,2013-06-23 22:50:00,
2013-06-23 18:55:00,79.0,69.2,29.98,SSE,168,5.1,6.9,72,0.00,CLR,,0.00,WeatherDisplay:10.37,2013-06-23 22:55:00,
2013-06-23 19:00:00,78.8,69.0,29.99,SSE,155,3.6,6.9,72,0.00,CLR,,0.00,WeatherDisplay:10.37,2013-06-23 23:00:00,
2013-06-23 19:05:00,78.8,69.0,29.99,South,185,4.8,8.1,72,0.00,CLR,,0.00,WeatherDisplay:10.37,2013-06-23 23:05:00,
2013-06-23 19:10:00,78.6,69.2,29.99,South,179,1.7,4.6,73,0.00,CLR,,0.00,WeatherDisplay:10.37,2013-06-23 23:10:00,
2013-06-23 19:16:00,78.5,69.1,29.99,SSW,203,2.3,4.6,73,0.00,CLR,,0.00,WeatherDisplay:10.37,2013-06-23 23:16:00,
2013-06-23 19:21:00,78.3,68.9,29.99,ESE,109,4.7,6.9,73,0.00,CLR,,0.00,WeatherDisplay:10.37,2013-06-23 23:21:00,
2013-06-23 19:26:00,78.1,69.1,29.99,South,185,0.0,0.0,74,0.00,CLR,,0.00,WeatherDisplay:10.37,2013-06-23 23:26:00,
2013-06-23 19:31:00,77.9,68.5,29.99,SSW,200,1.0,3.5,73,0.00,CLR,,0.00,WeatherDisplay:10.37,2013-06-23 23:31:00,
2013-06-23 19:36:00,77.7,68.4,29.99,SSW,205,3.5,4.6,73,0.00,CLR,,0.00,WeatherDisplay:10.37,2013-06-23 23:36:00,
2013-06-23 19:42:00,77.7,68.7,29.99,SSW,192,0.0,0.0,74,0.00,CLR,,0.00,WeatherDisplay:10.37,2013-06-23 23:42:00,
2013-06-23 19:47:00,77.6,68.7,29.99,SSW,193,0.0,0.0,74,0.00,CLR,,0.00,WeatherDisplay:10.37,2013-06-23 23:47:00,
2013-06-23 19:52:00,77.4,68.5,29.99,South,189,3.3,4.6,74,0.00,CLR,,0.00,WeatherDisplay:10.37,2013-06-23 23:52:00,
2013-06-23 19:57:00,77.4,68.5,29.99,South,188,0.2,0.0,74,0.00,CLR,,0.00,WeatherDisplay:10.37,2013-06-23 23:57:00,
2013-06-23 20:03:00,77.2,68.3,29.99,South,179,1.0,3.5,74,0.00,CLR,,0.00,WeatherDisplay:10.37,2013-06-24 00:03:00,
2013-06-23 20:08:00,77.0,68.1,29.99,SSE,155,0.0,0.0,74,0.00,CLR,,0.00,WeatherDisplay:10.37,2013-06-24 00:08:00,
2013-06-23 20:13:00,76.8,68.3,29.99,SSE,154,0.0,0.0,75,0.00,CLR,,0.00,WeatherDisplay:10.37,2013-06-24 00:13:00,
2013-06-23 20:18:00,76.5,68.4,29.99,SSW,192,1.1,2.3,76,0.00,CLR,,0.00,WeatherDisplay:10.37,2013-06-24 00:18:00,
2013-06-23 20:23:00,76.3,68.2,29.99,SSW,192,0.0,0.0,76,0.00,CLR,,0.00,WeatherDisplay:10.37,2013-06-24 00:23:00,
2013-06-23 20:28:00,76.1,68.0,29.99,South,191,0.0,0.0,76,0.00,CLR,,0.00,WeatherDisplay:10.37,2013-06-24 00:28:00,
2013-06-23 20:33:00,76.0,68.3,29.99,South,179,0.0,0.0,77,0.00,CLR,,0.00,WeatherDisplay:10.37,2013-06-24 00:33:00,
2013-06-23 20:38:00,76.0,68.3,29.99,South,181,0.0,0.0,77,0.00,CLR,,0.00,WeatherDisplay:10.37,2013-06-24 00:38:00,
2013-06-23 20:44:00,75.8,68.4,29.99,South,181,0.0,0.0,78,0.00,CLR,,0.00,WeatherDisplay:10.37,2013-06-24 00:44:00,
2013-06-23 20:49:00,75.6,68.3,29.99,South,181,0.0,0.0,78,0.00,CLR,,0.00,WeatherDisplay:10.37,2013-06-24 00:49:00,
2013-06-23 20:54:00,75.4,68.1,29.99,South,181,0.0,0.0,78,0.00,CLR,,0.00,WeatherDisplay:10.37,2013-06-24 00:54:00,
2013-06-23 20:59:00,75.4,68.4,30.00,South,179,0.0,0.0,79,0.00,CLR,,0.00,WeatherDisplay:10.37,2013-06-24 00:59:00,
2013-06-23 21:04:00,75.3,68.7,30.00,South,188,0.0,0.0,80,0.00,CLR,,0.00,WeatherDisplay:10.37,2013-06-24 01:04:00,
2013-06-23 21:09:00,75.1,68.5,30.00,South,188,0.0,0.0,80,0.00,CLR,,0.00,WeatherDisplay:10.37,2013-06-24 01:09:00,
2013-06-23 21:14:00,75.1,68.9,30.00,SSW,198,1.8,4.6,81,0.00,CLR,,0.00,WeatherDisplay:10.37,2013-06-24 01:14:00,
2013-06-23 21:19:00,74.9,68.7,30.00,SSW,196,0.0,0.0,81,0.00,CLR,,0.00,WeatherDisplay:10.37,2013-06-24 01:19:00,
2013-06-23 21:25:00,74.9,69.0,30.00,SSW,196,0.0,0.0,82,0.00,CLR,,0.00,WeatherDisplay:10.37,2013-06-24 01:25:00,
2013-06-23 21:30:00,74.9,69.0,30.00,SSW,196,0.0,0.0,82,0.00,CLR,,0.00,WeatherDisplay:10.37,2013-06-24 01:30:00,
2013-06-23 21:35:00,74.7,68.8,30.00,SSW,196,0.0,0.0,82,0.00,CLR,,0.00,WeatherDisplay:10.37,2013-06-24 01:35:00,
2013-06-23 21:40:00,74.6,69.1,30.00,SSW,196,0.0,0.0,83,0.00,CLR,,0.00,WeatherDisplay:10.37,2013-06-24 01:40:00,
2013-06-23 21:45:00,74.6,69.1,30.01,SSW,198,0.0,0.0,83,0.00,CLR,,0.00,WeatherDisplay:10.37,2013-06-24 01:45:00,
2013-06-23 21:50:00,74.4,69.2,30.01,SSW,198,0.0,0.0,84,0.00,CLR,,0.00,WeatherDisplay:10.37,2013-06-24 01:50:00,
2013-06-23 21:55:00,74.4,69.2,30.01,SSW,198,0.0,0.0,84,0.00,CLR,,0.00,WeatherDisplay:10.37,2013-06-24 01:55:00,
2013-06-23 22:01:00,74.2,69.1,30.01,SSW,198,0.0,0.0,84,0.00,CLR,,0.00,WeatherDisplay:10.37,2013-06-24 02:01:00,
2013-06-23 22:06:00,74.2,69.4,30.01,SSW,199,0.0,0.0,85,0.00,CLR,,0.00,WeatherDisplay:10.37,2013-06-24 02:06:00,
2013-06-23 22:11:00,74.0,69.2,30.01,SSW,199,0.0,0.0,85,0.00,CLR,,0.00,WeatherDisplay:10.37,2013-06-24 02:11:00,
2013-06-23 22:16:00,74.0,69.2,30.01,SSW,199,0.0,0.0,85,0.00,CLR,,0.00,WeatherDisplay:10.37,2013-06-24 02:16:00,
2013-06-23 22:21:00,74.0,69.2,30.00,SSW,199,0.0,0.0,85,0.00,CLR,,0.00,WeatherDisplay:10.37,2013-06-24 02:21:00,
2013-06-23 22:26:00,73.9,69.4,30.01,SSW,199,0.0,0.0,86,0.00,CLR,,0.00,WeatherDisplay:10.37,2013-06-24 02:26:00,
2013-06-23 22:32:00,73.7,69.2,30.01,SSW,199,0.0,0.0,86,0.00,CLR,,0.00,WeatherDisplay:10.37,2013-06-24 02:32:00,
2013-06-23 22:37:00,73.7,69.6,30.01,SSW,199,0.0,0.0,87,0.00,CLR,,0.00,WeatherDisplay:10.37,2013-06-24 02:37:00,
2013-06-23 22:42:00,73.7,69.6,30.01,SSW,199,0.0,0.0,87,0.00,CLR,,0.00,WeatherDisplay:10.37,2013-06-24 02:42:00,
2013-06-23 22:47:00,73.5,69.4,30.01,SSW,199,0.0,0.0,87,0.00,CLR,,0.00,WeatherDisplay:10.37,2013-06-24 02:47:00,
2013-06-23 22:52:00,73.5,69.7,30.00,SSW,198,0.0,2.3,88,0.00,CLR,,0.00,WeatherDisplay:10.37,2013-06-24 02:52:00,
2013-06-23 22:58:00,73.3,69.5,30.00,SSW,198,0.0,0.0,88,0.00,CLR,,0.00,WeatherDisplay:10.37,2013-06-24 02:58:00,
2013-06-23 23:03:00,73.2,69.4,30.00,SSW,200,0.0,0.0,88,0.00,CLR,,0.00,WeatherDisplay:10.37,2013-06-24 03:03:00,
2013-06-23 23:08:00,73.2,69.4,30.00,SSW,200,0.0,0.0,88,0.00,CLR,,0.00,WeatherDisplay:10.37,2013-06-24 03:08:00,
2013-06-23 23:13:00,73.0,69.6,30.00,SSW,205,0.0,0.0,89,0.00,CLR,,0.00,WeatherDisplay:10.37,2013-06-24 03:13:00,
2013-06-23 23:18:00,73.0,69.6,30.00,SSW,205,0.0,0.0,89,0.00,CLR,,0.00,WeatherDisplay:10.37,2013-06-24 03:18:00,
2013-06-23 23:23:00,72.8,69.4,30.00,SSW,205,0.0,0.0,89,0.00,CLR,,0.00,WeatherDisplay:10.37,2013-06-24 03:23:00,
2013-06-23 23:28:00,72.8,69.7,30.00,SSW,205,0.0,0.0,90,0.00,CLR,,0.00,WeatherDisplay:10.37,2013-06-24 03:28:00,
2013-06-23 23:34:00,72.8,69.7,30.00,SSW,206,0.0,0.0,90,0.00,CLR,,0.00,WeatherDisplay:10.37,2013-06-24 03:34:00,
2013-06-23 23:39:00,72.8,69.7,30.00,SSW,206,0.0,0.0,90,0.00,CLR,,0.00,WeatherDisplay:10.37,2013-06-24 03:39:00,
2013-06-23 23:44:00,72.8,69.7,30.00,SSW,206,0.0,0.0,90,0.00,CLR,,0.00,WeatherDisplay:10.37,2013-06-24 03:44:00,
2013-06-23 23:49:00,72.8,69.7,30.00,SSW,206,0.0,0.0,90,0.00,CLR,,0.00,WeatherDisplay:10.37,2013-06-24 03:49:00,
2013-06-23 23:54:00,72.8,70.0,30.00,SSW,206,0.0,0.0,91,0.00,CLR,,0.00,WeatherDisplay:10.37,2013-06-24 03:54:00,